Time;durP1;ratioP1;P1;durP2;ratioP2;P2;SDS_P1;SDS_P2;PMS_P1;PMS_P2;Temp;Humidity;BMP_temperature;BMP_pressure;BME280_temperature;BME280_humidity;BME280_pressure;Samples;Min_cycle;Max_cycle;Signal;HPM_P1;HPM_P2
2022/05/02 00:01:22;;;;;;;13.15;11.85;;;14.20;59.70;;;;;;4923640;29;20467;-76
2022/05/02 00:03:48;;;;;;;11.98;10.85;;;14.20;59.70;;;;;;4932372;29;20500;-76
2022/05/02 00:06:14;;;;;;;13.27;12.07;;;14.20;59.80;;;;;;4922140;29;20611;-76
2022/05/02 00:08:39;;;;;;;13.85;11.75;;;14.10;59.70;;;;;;4926428;29;20477;-76
2022/05/02 00:11:05;;;;;;;13.32;12.02;;;14.10;59.70;;;;;;4922032;29;20397;-76
2022/05/02 00:13:32;;;;;;;13.73;12.35;;;14.10;59.80;;;;;;4927573;29;20039;-76
2022/05/02 00:15:58;;;;;;;12.57;11.38;;;14.10;59.80;;;;;;4932025;29;20438;-76
2022/05/02 00:18:24;;;;;;;13.95;12.55;;;14.10;59.90;;;;;;4935844;29;20093;-76
2022/05/02 00:20:50;;;;;;;13.43;12.02;;;14.10;60.00;;;;;;4931357;28;20042;-76
2022/05/02 00:23:16;;;;;;;13.20;11.90;;;14.10;60.00;;;;;;4940956;29;20023;-75
2022/05/02 00:25:42;;;;;;;13.38;12.07;;;14.10;60.10;;;;;;4932379;28;20244;-75
2022/05/02 00:28:13;;;;;;;13.55;12.15;;;14.10;60.10;;;;;;4929526;29;20477;-76
2022/05/02 00:30:39;;;;;;;13.93;12.52;;;14.10;60.20;;;;;;4931501;29;20428;-76
2022/05/02 00:33:06;;;;;;;13.90;12.23;;;14.10;60.10;;;;;;4930357;29;20043;-76
2022/05/02 00:35:32;;;;;;;14.05;12.65;;;14.10;60.20;;;;;;4932175;28;20195;-76
2022/05/02 00:37:58;;;;;;;14.07;12.68;;;14.10;60.20;;;;;;4919830;29;20028;-76
2022/05/02 00:40:24;;;;;;;14.23;12.73;;;14.10;60.20;;;;;;4930885;29;20055;-76
2022/05/02 00:42:51;;;;;;;14.95;13.45;;;14.10;60.30;;;;;;4926413;29;20546;-75
2022/05/02 00:45:19;;;;;;;15.35;12.95;;;14.00;60.10;;;;;;4931236;29;20264;-76
2022/05/02 00:47:56;;;;;;;16.05;13.32;;;14.00;60.10;;;;;;4930503;29;20066;-75
2022/05/02 00:50:39;;;;;;;15.35;13.75;;;14.00;60.20;;;;;;4929953;29;20039;-75
2022/05/02 00:53:10;;;;;;;15.75;14.15;;;14.00;60.30;;;;;;4928432;29;20035;-75
2022/05/02 00:55:37;;;;;;;16.02;13.45;;;14.00;60.20;;;;;;4932506;29;20071;-75
2022/05/02 00:58:07;;;;;;;15.48;13.90;;;14.00;60.20;;;;;;4927576;29;20024;-75
2022/05/02 01:00:35;;;;;;;16.73;14.05;;;14.00;60.30;;;;;;4931421;29;20199;-76
2022/05/02 01:03:03;;;;;;;16.98;14.65;;;14.00;60.30;;;;;;4931388;29;20113;-76
2022/05/02 01:05:29;;;;;;;16.55;14.73;;;14.00;60.40;;;;;;4927642;29;20059;-77
2022/05/02 01:07:55;;;;;;;20.40;14.48;;;13.90;60.20;;;;;;4920401;29;20031;-76
2022/05/02 01:10:22;;;;;;;17.92;16.02;;;14.00;60.50;;;;;;4922358;29;20139;-75
2022/05/02 01:12:49;;;;;;;16.30;14.13;;;14.00;60.50;;;;;;4929472;29;20036;-75
2022/05/02 01:15:16;;;;;;;17.80;14.63;;;14.00;60.60;;;;;;4931265;29;20386;-75
2022/05/02 01:17:43;;;;;;;17.73;14.88;;;14.00;60.70;;;;;;4931182;29;20032;-75
2022/05/02 01:20:14;;;;;;;16.95;14.52;;;13.90;60.50;;;;;;4925022;29;20042;-75
2022/05/02 01:22:40;;;;;;;17.33;15.52;;;14.00;60.70;;;;;;4934354;29;20035;-76
2022/05/02 01:25:06;;;;;;;18.08;14.68;;;14.00;60.70;;;;;;4937422;28;20391;-76
2022/05/02 01:27:32;;;;;;;18.60;15.10;;;14.00;60.70;;;;;;4929464;29;20031;-75
2022/05/02 01:29:58;;;;;;;17.90;15.57;;;14.00;60.70;;;;;;4928263;29;20028;-76
2022/05/02 01:32:26;;;;;;;16.10;14.35;;;14.00;60.80;;;;;;4930368;29;20037;-76
2022/05/02 01:34:53;;;;;;;17.00;15.20;;;13.90;60.60;;;;;;4932660;29;20027;-75
2022/05/02 01:37:19;;;;;;;17.55;15.48;;;14.00;60.80;;;;;;4952516;29;20052;-75
2022/05/02 01:39:45;;;;;;;17.42;14.75;;;14.00;60.80;;;;;;4949709;28;20063;-75
2022/05/02 01:42:14;;;;;;;17.95;16.05;;;14.00;60.80;;;;;;4950672;29;20048;-75
2022/05/02 01:44:40;;;;;;;19.10;15.40;;;14.00;60.90;;;;;;4929750;29;20023;-76
2022/05/02 01:47:09;;;;;;;19.80;15.52;;;13.90;60.70;;;;;;4950497;29;20059;-76
2022/05/02 01:49:35;;;;;;;21.15;15.60;;;13.90;60.80;;;;;;4943552;29;20042;-77
2022/05/02 01:52:01;;;;;;;18.00;14.85;;;13.90;60.70;;;;;;4953935;29;20048;-77
2022/05/02 01:54:27;;;;;;;19.23;15.82;;;13.90;60.80;;;;;;4943555;29;20027;-76
2022/05/02 01:56:56;;;;;;;20.20;15.52;;;14.00;61.00;;;;;;4954124;29;20051;-76
2022/05/02 01:59:22;;;;;;;17.90;14.85;;;13.90;60.80;;;;;;4956091;29;20064;-75
2022/05/02 02:01:48;;;;;;;19.13;15.88;;;14.00;61.00;;;;;;4950325;29;20027;-76
2022/05/02 02:06:59;;;;;;;20.10;15.82;;;13.90;60.90;;;;;;4954568;29;20028;-76
2022/05/02 02:09:25;;;;;;;17.60;14.77;;;13.90;60.90;;;;;;4955382;29;20075;-76
2022/05/02 02:11:51;;;;;;;17.88;15.55;;;14.00;61.10;;;;;;4945576;29;20031;-75
2022/05/02 02:14:17;;;;;;;18.17;15.30;;;13.90;61.00;;;;;;4933188;29;20032;-74
2022/05/02 02:16:43;;;;;;;21.02;16.08;;;13.90;61.00;;;;;;4927351;29;20219;-74
2022/05/02 02:19:09;;;;;;;19.70;15.40;;;13.90;61.10;;;;;;4932494;29;20028;-74
2022/05/02 02:21:35;;;;;;;22.38;15.38;;;13.90;61.10;;;;;;4931987;29;20428;-74
2022/05/02 02:24:03;;;;;;;21.10;15.02;;;13.90;61.10;;;;;;4940474;28;20028;-75
2022/05/02 02:26:29;;;;;;;18.52;15.65;;;13.90;61.10;;;;;;4929312;29;20095;-75
2022/05/02 02:28:55;;;;;;;23.52;16.77;;;13.90;61.10;;;;;;4930269;29;20032;-75
2022/05/02 02:31:21;;;;;;;21.88;17.52;;;13.90;61.20;;;;;;4926250;29;20099;-75
2022/05/02 02:33:47;;;;;;;22.58;16.67;;;13.80;61.00;;;;;;4916307;29;20027;-75
2022/05/02 02:36:12;;;;;;;27.10;17.92;;;13.80;61.10;;;;;;4929663;29;20095;-75
2022/05/02 02:38:38;;;;;;;18.60;15.35;;;13.80;61.10;;;;;;4931214;29;20027;-75
2022/05/02 02:41:04;;;;;;;21.27;16.77;;;13.80;61.10;;;;;;4914040;29;20038;-75
2022/05/02 02:43:30;;;;;;;19.70;15.82;;;13.80;61.20;;;;;;4929988;29;20395;-76
2022/05/02 02:45:56;;;;;;;19.23;15.57;;;13.80;61.20;;;;;;4931459;29;20028;-76
2022/05/02 02:48:22;;;;;;;20.33;15.98;;;13.80;61.30;;;;;;4931278;29;20369;-76
2022/05/02 02:50:48;;;;;;;21.00;16.58;;;13.80;61.30;;;;;;4929717;29;20032;-76
2022/05/02 02:53:14;;;;;;;21.73;16.42;;;13.80;61.30;;;;;;4931309;29;20046;-76
2022/05/02 02:55:40;;;;;;;19.27;15.80;;;13.80;61.40;;;;;;4931395;29;20047;-76
2022/05/02 02:58:06;;;;;;;23.67;17.17;;;13.80;61.40;;;;;;4911918;29;20039;-76
2022/05/02 03:00:31;;;;;;;22.52;15.77;;;13.80;61.40;;;;;;4932577;29;20046;-76
2022/05/02 03:02:58;;;;;;;24.05;17.90;;;13.80;61.40;;;;;;4931572;29;20024;-77
2022/05/02 03:08:09;;;;;;;21.27;16.02;;;13.80;61.50;;;;;;4932315;29;20301;-76
2022/05/02 03:10:36;;;;;;;20.95;17.52;;;13.80;61.50;;;;;;4930072;29;20042;-76
2022/05/02 03:13:02;;;;;;;21.92;16.48;;;13.80;61.50;;;;;;4933556;29;20035;-76
2022/05/02 03:15:28;;;;;;;21.83;16.42;;;13.80;61.50;;;;;;4934102;29;20038;-76
2022/05/02 03:17:53;;;;;;;19.88;16.40;;;13.70;61.40;;;;;;4929752;29;20036;-76
2022/05/02 03:20:20;;;;;;;21.45;16.42;;;13.70;61.40;;;;;;4927118;29;20038;-76
2022/05/02 03:22:45;;;;;;;21.23;16.20;;;13.70;61.40;;;;;;4934803;29;20031;-76
2022/05/02 03:25:11;;;;;;;21.50;16.70;;;13.70;61.40;;;;;;4931902;29;20163;-76
2022/05/02 03:27:37;;;;;;;23.35;17.25;;;13.70;61.50;;;;;;4929064;29;20095;-76
2022/05/02 03:30:03;;;;;;;21.05;15.98;;;13.70;61.50;;;;;;4913865;29;20571;-76
2022/05/02 03:32:29;;;;;;;21.83;16.00;;;13.70;61.50;;;;;;4930738;29;20023;-76
2022/05/02 03:34:55;;;;;;;23.52;17.63;;;13.70;61.60;;;;;;4930691;29;20027;-76
2022/05/02 03:37:22;;;;;;;22.70;16.60;;;13.70;61.60;;;;;;4931440;29;20135;-76
2022/05/02 03:39:48;;;;;;;21.85;16.73;;;13.70;61.60;;;;;;4930723;29;20024;-76
2022/05/02 03:42:14;;;;;;;22.02;16.75;;;13.70;61.70;;;;;;4930461;29;20511;-77
2022/05/02 03:44:40;;;;;;;22.50;17.20;;;13.70;61.70;;;;;;4928390;29;20262;-76
2022/05/02 03:47:06;;;;;;;23.83;17.63;;;13.60;61.50;;;;;;4931310;29;20127;-76
2022/05/02 03:49:32;;;;;;;23.70;17.17;;;13.60;61.60;;;;;;4930148;29;20280;-76
2022/05/02 03:51:58;;;;;;;22.35;17.27;;;13.60;61.60;;;;;;4930067;29;20115;-76
2022/05/02 03:54:24;;;;;;;22.17;15.73;;;13.60;61.60;;;;;;4925509;29;20411;-76
2022/05/02 03:56:50;;;;;;;23.67;17.48;;;13.60;61.70;;;;;;4929180;29;20059;-76
2022/05/02 03:59:15;;;;;;;24.70;17.23;;;13.60;61.70;;;;;;4919070;29;20383;-75
2022/05/02 04:01:42;;;;;;;25.58;18.30;;;13.60;61.70;;;;;;4931182;29;20036;-75
2022/05/02 04:04:08;;;;;;;24.27;18.05;;;13.60;61.70;;;;;;4930830;29;20028;-74
2022/05/02 04:06:34;;;;;;;23.10;17.25;;;13.60;61.70;;;;;;4929156;29;20053;-75
2022/05/02 04:09:00;;;;;;;25.50;18.70;;;13.60;61.80;;;;;;4930657;29;20407;-75
2022/05/02 04:11:26;;;;;;;26.75;19.52;;;13.60;61.80;;;;;;4929414;29;20066;-75
2022/05/02 04:13:52;;;;;;;23.92;17.70;;;13.60;61.80;;;;;;4916867;29;20063;-74
2022/05/02 04:16:19;;;;;;;31.08;19.65;;;13.60;61.80;;;;;;4925302;29;20052;-75
2022/05/02 04:18:45;;;;;;;24.23;18.27;;;13.60;61.80;;;;;;4930227;29;20027;-75
2022/05/02 04:21:12;;;;;;;25.23;18.60;;;13.60;61.90;;;;;;4928968;29;20067;-74
2022/05/02 04:23:37;;;;;;;26.17;19.00;;;13.60;61.90;;;;;;4936084;29;20030;-74
2022/05/02 04:26:03;;;;;;;27.42;19.27;;;13.60;61.90;;;;;;4930484;29;20035;-75
2022/05/02 04:28:30;;;;;;;24.30;18.88;;;13.60;62.00;;;;;;4927645;29;20031;-76
2022/05/02 04:30:57;;;;;;;26.55;20.02;;;13.60;62.00;;;;;;4929017;29;20099;-75
2022/05/02 04:33:23;;;;;;;25.95;18.13;;;13.60;62.00;;;;;;4929134;29;20515;-75
2022/05/02 04:35:49;;;;;;;25.98;18.17;;;13.60;62.10;;;;;;4930609;29;20039;-76
2022/05/02 04:38:15;;;;;;;25.60;17.75;;;13.60;62.10;;;;;;4928752;29;20058;-76
2022/05/02 04:40:41;;;;;;;28.15;18.90;;;13.60;62.10;;;;;;4929952;29;20491;-76
2022/05/02 04:43:07;;;;;;;24.65;18.00;;;13.60;62.20;;;;;;4922998;29;20081;-76
2022/05/02 04:45:33;;;;;;;24.20;18.40;;;13.60;62.20;;;;;;4921647;29;20088;-77
2022/05/02 04:47:59;;;;;;;27.45;18.55;;;13.60;62.20;;;;;;4919485;29;20055;-76
2022/05/02 04:50:24;;;;;;;26.05;19.17;;;13.60;62.20;;;;;;4927126;29;20039;-76
2022/05/02 04:52:50;;;;;;;25.95;18.20;;;13.50;62.10;;;;;;4930984;29;20028;-76
2022/05/02 04:55:16;;;;;;;22.35;16.90;;;13.50;62.20;;;;;;4930136;29;20066;-75
2022/05/02 04:57:42;;;;;;;24.92;18.35;;;13.60;62.30;;;;;;4923169;29;20055;-76
2022/05/02 05:00:08;;;;;;;26.00;17.77;;;13.60;62.40;;;;;;4933774;28;20492;-76
2022/05/02 05:02:34;;;;;;;25.85;19.05;;;13.60;62.40;;;;;;4925165;29;20031;-76
2022/05/02 05:05:00;;;;;;;25.15;17.83;;;13.60;62.40;;;;;;4931160;29;20039;-77
2022/05/02 05:07:26;;;;;;;25.20;18.17;;;13.60;62.50;;;;;;4928244;29;20040;-77
2022/05/02 05:09:52;;;;;;;26.00;16.92;;;13.60;62.50;;;;;;4921328;29;20040;-77
2022/05/02 05:12:37;;;;;;;27.25;18.58;;;13.60;62.50;;;;;;4922081;29;20043;-76
2022/05/02 05:18:40;;;;;;;22.50;16.60;;;13.70;62.70;;;;;;4925378;29;20036;-77
2022/05/02 05:21:12;;;;;;;22.50;16.02;;;13.70;62.60;;;;;;4945335;29;20031;-76
2022/05/02 05:24:10;;;;;;;25.80;18.55;;;13.70;62.60;;;;;;4950343;29;20079;-77
2022/05/02 05:26:53;;;;;;;25.50;17.55;;;13.70;62.70;;;;;;4940293;29;20020;-77
2022/05/02 05:29:46;;;;;;;25.58;18.85;;;13.70;62.70;;;;;;4947686;28;20273;-76
2022/05/02 05:32:28;;;;;;;21.85;17.17;;;13.70;62.70;;;;;;4930612;29;20067;-76
2022/05/02 05:35:04;;;;;;;23.35;18.90;;;13.70;62.70;;;;;;4927939;29;20100;-76
2022/05/02 05:37:51;;;;;;;20.60;16.80;;;13.70;62.60;;;;;;4922012;29;20043;-79
2022/05/02 05:40:30;;;;;;;22.45;17.05;;;13.70;62.70;;;;;;4924194;29;20039;-84
2022/05/02 05:43:24;;;;;;;22.85;17.70;;;13.70;62.70;;;;;;4919977;29;20043;-80
2022/05/02 05:46:11;;;;;;;22.75;17.20;;;13.70;62.70;;;;;;4927291;29;20020;-81
2022/05/02 05:49:18;;;;;;;23.00;16.75;;;13.70;62.60;;;;;;4910079;29;20067;-79
2022/05/02 05:52:09;;;;;;;21.65;17.67;;;13.70;62.80;;;;;;4916879;29;20237;-79
2022/05/02 05:54:50;;;;;;;24.23;18.13;;;13.80;62.90;;;;;;4920966;29;20449;-80
2022/05/02 05:57:15;;;;;;;19.73;15.88;;;13.80;62.80;;;;;;4926608;29;20525;-81
2022/05/02 06:00:05;;;;;;;22.38;17.33;;;13.80;62.80;;;;;;4922760;29;20119;-78
2022/05/02 06:02:59;;;;;;;23.63;16.52;;;13.80;62.90;;;;;;4925468;29;20315;-79
2022/05/02 06:05:26;;;;;;;24.48;17.77;;;13.80;62.90;;;;;;4919837;29;20036;-82
2022/05/02 06:07:52;;;;;;;22.80;17.73;;;13.90;62.90;;;;;;4924760;29;20062;-77
2022/05/02 06:10:19;;;;;;;24.38;17.90;;;13.90;62.90;;;;;;4928539;29;20118;-81
2022/05/02 06:12:46;;;;;;;21.50;16.48;;;14.00;63.10;;;;;;4925518;29;20023;-78
2022/05/02 06:20:44;;;;;;;21.98;16.40;;;14.00;63.00;;;;;;4924706;29;20030;-76
2022/05/02 06:23:16;;;;;;;23.27;17.15;;;14.10;63.10;;;;;;4928643;29;20136;-76
2022/05/02 06:25:49;;;;;;;24.77;18.85;;;14.10;63.10;;;;;;4925174;29;20035;-77
2022/05/02 06:28:17;;;;;;;21.75;17.52;;;14.20;63.10;;;;;;4923251;29;20395;-78
2022/05/02 06:30:48;;;;;;;21.52;16.35;;;14.30;63.20;;;;;;4925951;29;20040;-78
2022/05/02 06:33:14;;;;;;;21.15;17.45;;;14.30;63.10;;;;;;4928791;29;20129;-78
2022/05/02 06:36:06;;;;;;;23.40;18.45;;;14.40;63.10;;;;;;4924752;29;20036;-77
2022/05/02 06:38:51;;;;;;;25.45;18.23;;;14.50;63.30;;;;;;4925971;29;20063;-76
2022/05/02 06:41:55;;;;;;;23.80;18.40;;;14.60;63.20;;;;;;4937918;29;20095;-78
2022/05/02 06:44:34;;;;;;;22.95;20.08;;;14.70;63.30;;;;;;4908966;29;20392;-78
2022/05/02 06:47:14;;;;;;;22.90;17.58;;;14.70;63.00;;;;;;4917690;29;20136;-81
2022/05/02 06:49:43;;;;;;;22.55;16.95;;;14.80;63.10;;;;;;4920728;29;20046;-80
2022/05/02 06:52:13;;;;;;;21.92;18.13;;;14.90;63.20;;;;;;4926547;29;20034;-78
2022/05/02 06:54:42;;;;;;;22.05;18.92;;;14.90;63.10;;;;;;4935551;29;20028;-78
2022/05/02 06:57:30;;;;;;;22.45;18.65;;;14.90;63.00;;;;;;4927380;29;20059;-91
2022/05/02 07:00:05;;;;;;;21.40;17.60;;;15.00;63.10;;;;;;4923369;29;20124;-82
2022/05/02 07:02:50;;;;;;;19.50;16.08;;;15.10;63.30;;;;;;4917936;29;20043;-76
2022/05/02 07:05:22;;;;;;;19.27;15.38;;;15.10;63.10;;;;;;4924734;29;20060;-76
2022/05/02 07:07:58;;;;;;;17.23;13.23;;;15.20;63.50;;;;;;4917583;29;20039;-76
2022/05/02 07:10:27;;;;;;;18.90;14.32;;;15.30;64.30;;;;;;4924656;29;20136;-75
2022/05/02 07:13:16;;;;;;;22.00;17.60;;;15.50;65.00;;;;;;4923283;29;20036;-78
2022/05/02 07:15:55;;;;;;;21.23;17.40;;;15.70;65.20;;;;;;4922876;29;20448;-77
2022/05/02 07:18:49;;;;;;;26.00;19.80;;;15.80;64.60;;;;;;4921767;29;20520;-76
2022/05/02 07:21:21;;;;;;;25.23;19.42;;;15.80;64.10;;;;;;4938393;29;20108;-76
2022/05/02 07:24:06;;;;;;;26.90;21.42;;;15.70;63.80;;;;;;4927589;29;20090;-75
2022/05/02 07:26:36;;;;;;;23.67;18.83;;;15.70;63.90;;;;;;4921493;29;20107;-77
2022/05/02 07:29:04;;;;;;;24.17;20.15;;;15.70;63.90;;;;;;4915872;29;20035;-77
2022/05/02 07:31:31;;;;;;;25.00;18.95;;;15.60;63.70;;;;;;4924755;29;20526;-76
2022/05/02 07:33:58;;;;;;;24.20;19.17;;;15.50;63.60;;;;;;4920661;29;20028;-76
2022/05/02 07:36:25;;;;;;;25.88;20.52;;;15.50;63.70;;;;;;4922880;29;20040;-76
2022/05/02 07:39:03;;;;;;;25.88;21.17;;;15.50;63.70;;;;;;4921000;29;20035;-79
2022/05/02 07:41:31;;;;;;;23.83;18.83;;;15.50;63.60;;;;;;4919578;29;20032;-75
2022/05/02 07:44:08;;;;;;;24.20;20.42;;;15.40;63.50;;;;;;4919687;29;20050;-75
2022/05/02 07:46:39;;;;;;;22.50;18.90;;;15.40;63.70;;;;;;4919918;29;20052;-76
2022/05/02 07:49:06;;;;;;;24.02;20.27;;;15.30;63.60;;;;;;4921516;29;20344;-77
2022/05/02 07:51:35;;;;;;;28.73;21.05;;;15.30;63.90;;;;;;4923721;29;20028;-78
2022/05/02 07:54:01;;;;;;;26.88;21.13;;;15.30;64.10;;;;;;4922815;29;20119;-82
2022/05/02 07:56:31;;;;;;;26.60;20.77;;;15.20;64.10;;;;;;4919027;29;20043;-78
2022/05/02 07:58:59;;;;;;;27.08;20.35;;;15.20;64.20;;;;;;4917648;29;20055;-77
2022/05/02 08:01:25;;;;;;;25.20;19.70;;;15.20;64.20;;;;;;4924321;29;20400;-77
2022/05/02 08:03:52;;;;;;;24.23;18.95;;;15.20;64.20;;;;;;4924736;29;20032;-77
2022/05/02 08:06:50;;;;;;;21.85;19.23;;;15.20;64.20;;;;;;4914142;29;20048;-77
2022/05/02 08:09:53;;;;;;;22.08;18.85;;;15.30;64.40;;;;;;4921919;29;20064;-76
2022/05/02 08:12:40;;;;;;;22.52;17.65;;;15.30;64.40;;;;;;4904959;29;20443;-76
2022/05/02 08:15:12;;;;;;;24.00;19.50;;;15.30;64.10;;;;;;4920896;29;20023;-75
2022/05/02 08:18:08;;;;;;;22.00;17.45;;;15.40;64.00;;;;;;4919120;29;20057;-76
2022/05/02 08:20:50;;;;;;;22.75;19.00;;;15.50;64.00;;;;;;4921672;29;20036;-75
2022/05/02 08:29:29;;;;;;;26.67;19.85;;;15.70;63.80;;;;;;4923967;29;20040;-75
2022/05/02 08:32:19;;;;;;;21.88;17.50;;;15.60;63.40;;;;;;4924403;29;20043;-74
2022/05/02 08:34:45;;;;;;;23.70;18.73;;;15.70;63.40;;;;;;4925098;29;20039;-76
2022/05/02 08:37:42;;;;;;;24.08;17.95;;;15.70;63.30;;;;;;4926590;29;20067;-79
2022/05/02 08:40:22;;;;;;;24.58;18.88;;;15.80;63.40;;;;;;4924085;29;20466;-75
2022/05/02 08:43:32;;;;;;;21.17;17.60;;;15.80;63.30;;;;;;4923293;29;20153;-75
2022/05/02 08:46:34;;;;;;;23.67;18.20;;;15.90;63.50;;;;;;4908038;29;20239;-79
2022/05/02 08:49:35;;;;;;;24.23;18.38;;;16.00;63.40;;;;;;4906954;29;20132;-77
2022/05/02 08:52:28;;;;;;;22.10;16.98;;;16.10;63.30;;;;;;4922826;29;20127;-77
2022/05/02 08:55:32;;;;;;;20.45;16.77;;;16.20;63.20;;;;;;4924511;29;20122;-75
2022/05/02 08:58:13;;;;;;;;;;;16.30;63.20;;;;;;4928273;29;20043;-77
2022/05/02 09:00:58;;;;;;;19.63;15.30;;;16.40;63.20;;;;;;4923063;29;19915;-76
2022/05/02 09:03:42;;;;;;;20.17;16.30;;;16.40;63.10;;;;;;4925492;29;20087;-76
2022/05/02 09:06:23;;;;;;;19.17;17.17;;;16.40;63.00;;;;;;4922554;29;20030;-75
2022/05/02 09:09:23;;;;;;;20.50;17.30;;;16.50;63.00;;;;;;4927972;29;20074;-76
2022/05/02 09:11:58;;;;;;;20.48;16.33;;;16.50;63.00;;;;;;4913243;29;20036;-77
2022/05/02 09:14:43;;;;;;;18.45;15.93;;;16.60;62.90;;;;;;4948854;29;20573;-76
2022/05/02 09:17:36;;;;;;;20.83;16.35;;;16.60;62.70;;;;;;4945258;28;20470;-76
2022/05/02 09:20:17;;;;;;;18.65;15.88;;;16.70;62.70;;;;;;4952297;28;20020;-76
2022/05/02 09:23:15;;;;;;;16.60;14.82;;;16.80;62.60;;;;;;4947865;28;20057;-77
2022/05/02 09:25:53;;;;;;;18.25;15.18;;;16.90;62.60;;;;;;4927035;29;20105;-77
2022/05/02 09:28:25;;;;;;;16.73;14.40;;;16.90;62.50;;;;;;4929268;29;20055;-76
2022/05/02 09:31:17;;;;;;;19.17;15.35;;;16.90;62.40;;;;;;4945466;28;20039;-78
2022/05/02 09:33:58;;;;;;;16.60;14.25;;;16.90;62.30;;;;;;4952476;28;20020;-77
2022/05/02 09:36:25;;;;;;;17.27;15.10;;;16.80;62.20;;;;;;4948246;28;20043;-77
2022/05/02 09:39:01;;;;;;;16.42;14.73;;;16.70;62.20;;;;;;4943012;28;20055;-78
2022/05/02 09:41:39;;;;;;;20.20;15.93;;;16.70;62.40;;;;;;4952837;28;20032;-81
2022/05/02 09:50:35;;;;;;;19.67;16.48;;;16.60;62.50;;;;;;4931547;29;20058;-75
2022/05/02 09:53:24;;;;;;;21.52;16.00;;;16.60;62.50;;;;;;4926429;29;20027;-75
2022/05/02 09:58:56;;;;;;;20.02;17.00;;;16.50;62.40;;;;;;4922952;29;20047;-74
2022/05/02 10:01:31;;;;;;;20.75;17.25;;;16.50;62.60;;;;;;4927820;29;20028;-74
2022/05/02 10:04:26;;;;;;;22.92;17.17;;;16.60;62.70;;;;;;4922582;29;20071;-74
2022/05/02 10:06:58;;;;;;;22.70;18.85;;;16.70;62.90;;;;;;4918586;29;20040;-73
2022/05/02 10:09:53;;;;;;;20.13;17.92;;;16.70;62.60;;;;;;4935788;28;20028;-76
2022/05/02 10:12:28;;;;;;;21.33;17.40;;;16.90;62.70;;;;;;4921742;29;20044;-74
2022/05/02 10:15:18;;;;;;;20.75;17.02;;;17.00;62.60;;;;;;4935212;29;20099;-75
2022/05/02 10:17:48;;;;;;;18.55;16.17;;;17.10;62.50;;;;;;4924616;29;20140;-75
2022/05/02 10:20:21;;;;;;;18.85;16.73;;;17.20;62.80;;;;;;4919545;29;20048;-75
2022/05/02 10:23:11;;;;;;;20.77;17.25;;;17.30;62.10;;;;;;4927744;29;20051;-75
2022/05/02 10:25:41;;;;;;;21.10;16.98;;;17.40;61.90;;;;;;4919153;29;20663;-75
2022/05/02 10:28:28;;;;;;;21.42;17.75;;;17.50;61.80;;;;;;4920512;29;20118;-75
2022/05/02 10:31:09;;;;;;;18.38;16.40;;;17.50;61.50;;;;;;4917218;29;20646;-85
2022/05/02 10:33:46;;;;;;;18.83;16.83;;;17.60;61.50;;;;;;4919305;29;20038;-80
2022/05/02 10:36:14;;;;;;;19.42;15.23;;;17.70;61.50;;;;;;4916327;29;20031;-84
2022/05/02 10:38:55;;;;;;;19.75;16.95;;;17.80;61.40;;;;;;4922560;29;20465;-80
2022/05/02 10:41:45;;;;;;;19.52;17.52;;;17.90;61.30;;;;;;4922486;29;20035;-78
2022/05/02 10:44:17;;;;;;;20.70;16.63;;;18.10;61.30;;;;;;4922040;29;20070;-84
2022/05/02 10:46:44;;;;;;;18.88;16.15;;;18.20;61.00;;;;;;4924141;29;20035;-82
2022/05/02 10:49:22;;;;;;;18.17;14.50;;;18.40;60.80;;;;;;4915787;29;20051;-78
2022/05/02 10:51:56;;;;;;;18.02;15.00;;;18.60;60.60;;;;;;4925726;29;20118;-76
2022/05/02 10:55:02;;;;;;;18.27;16.38;;;18.80;60.40;;;;;;4923642;29;20036;-78
2022/05/02 10:57:39;;;;;;;17.27;15.45;;;19.00;60.20;;;;;;4919195;29;20519;-81
2022/05/02 11:00:09;;;;;;;16.15;13.65;;;19.10;60.00;;;;;;4921807;29;20068;-74
2022/05/02 11:03:03;;;;;;;16.00;14.30;;;19.30;59.90;;;;;;4920893;29;20062;-75
2022/05/02 11:05:43;;;;;;;17.55;14.65;;;19.40;59.50;;;;;;4922856;29;20571;-77
2022/05/02 11:08:20;;;;;;;19.38;14.85;;;19.50;59.40;;;;;;4926740;29;20126;-78
2022/05/02 11:10:59;;;;;;;16.55;13.65;;;19.50;59.30;;;;;;4923709;29;20471;-80
2022/05/02 11:13:48;;;;;;;17.70;14.52;;;19.60;59.20;;;;;;4925748;29;20044;-81
2022/05/02 11:16:21;;;;;;;16.38;14.68;;;19.60;58.90;;;;;;4927126;29;20099;-80
2022/05/02 11:21:48;;;;;;;16.35;14.55;;;19.70;58.90;;;;;;4929359;29;20065;-85
2022/05/02 11:24:36;;;;;;;16.15;13.98;;;19.80;58.80;;;;;;4928832;29;20024;-86
2022/05/02 11:27:58;;;;;;;16.77;15.07;;;19.90;58.70;;;;;;4923073;29;20043;-85
2022/05/02 11:30:28;;;;;;;15.85;13.30;;;20.00;58.40;;;;;;4875489;29;20080;-84
2022/05/02 11:33:11;;;;;;;14.93;13.35;;;20.20;58.40;;;;;;4888153;29;20032;-83
2022/05/02 11:35:37;;;;;;;15.95;13.60;;;20.40;58.20;;;;;;4915420;29;20078;-79
2022/05/02 11:38:19;;;;;;;16.20;13.93;;;20.60;58.00;;;;;;4931498;29;20422;-79
2022/05/02 11:40:50;;;;;;;15.95;14.07;;;20.90;57.60;;;;;;4930012;29;20032;-81
2022/05/02 11:43:21;;;;;;;14.98;12.55;;;21.10;57.50;;;;;;4923446;29;20071;-81
2022/05/02 11:46:05;;;;;;;15.32;13.45;;;21.20;56.90;;;;;;4923876;29;20381;-75
2022/05/02 11:49:05;;;;;;;14.65;13.13;;;21.30;56.40;;;;;;4909858;29;20046;-76
2022/05/02 11:51:40;;;;;;;14.95;13.35;;;21.40;56.50;;;;;;4920779;29;20035;-94
2022/05/02 11:54:27;;;;;;;14.63;12.80;;;21.30;56.30;;;;;;4923919;29;20126;-90
2022/05/02 11:57:17;;;;;;;13.98;12.55;;;21.30;55.90;;;;;;4930225;29;20048;-88
2022/05/02 12:00:14;;;;;;;13.95;12.55;;;21.10;55.80;;;;;;4933299;29;20531;-86
2022/05/02 12:03:23;;;;;;;14.32;12.85;;;21.00;55.70;;;;;;4930824;29;20028;-85
2022/05/02 12:06:01;;;;;;;16.90;13.32;;;20.90;55.50;;;;;;4889475;29;20557;-86
2022/05/02 12:08:36;;;;;;;18.70;14.93;;;20.70;55.50;;;;;;4894101;29;20036;-82
2022/05/02 12:11:14;;;;;;;16.98;15.02;;;20.60;55.60;;;;;;4918524;29;20092;-81
2022/05/02 12:13:46;;;;;;;15.95;14.30;;;20.40;55.50;;;;;;4921869;29;20040;-76
2022/05/02 12:16:14;;;;;;;14.68;13.27;;;20.20;55.50;;;;;;4918070;29;20067;-76
2022/05/02 12:18:54;;;;;;;15.85;14.10;;;20.00;55.50;;;;;;4927444;29;20051;-76
2022/05/02 12:21:33;;;;;;;15.25;13.75;;;19.80;55.40;;;;;;4924351;29;20027;-82
2022/05/02 12:24:00;;;;;;;16.90;14.73;;;19.60;55.50;;;;;;4927201;29;20055;-82
2022/05/02 12:26:27;;;;;;;16.15;14.48;;;19.50;55.80;;;;;;4917604;29;20835;-78
2022/05/02 12:29:04;;;;;;;16.40;14.52;;;19.50;55.90;;;;;;4928423;29;20567;-78
2022/05/02 12:31:32;;;;;;;17.30;15.52;;;19.50;55.90;;;;;;4925000;29;20035;-80
2022/05/02 12:34:09;;;;;;;17.60;15.73;;;19.50;56.00;;;;;;4923521;29;20095;-76
2022/05/02 12:36:52;;;;;;;17.42;15.52;;;19.60;56.00;;;;;;4926079;29;20051;-75
2022/05/02 12:39:31;;;;;;;18.70;16.75;;;19.80;56.00;;;;;;4923793;29;20513;-76
2022/05/02 12:42:15;;;;;;;17.52;15.57;;;19.90;55.90;;;;;;4919762;29;20043;-77
2022/05/02 12:45:03;;;;;;;18.95;16.73;;;20.00;55.70;;;;;;4922668;29;20032;-78
2022/05/02 12:47:56;;;;;;;17.92;15.98;;;20.20;55.60;;;;;;4923271;29;20645;-74
2022/05/02 12:50:25;;;;;;;18.08;15.95;;;20.20;55.40;;;;;;4921255;29;20040;-74
2022/05/02 12:52:56;;;;;;;16.80;15.02;;;20.20;55.50;;;;;;4918949;29;20032;-74
2022/05/02 12:55:24;;;;;;;16.80;15.00;;;20.20;55.50;;;;;;4923884;29;20027;-74
2022/05/02 13:00:47;;;;;;;18.15;13.68;;;20.10;55.50;;;;;;4924068;29;20551;-74
2022/05/02 13:03:17;;;;;;;16.80;13.75;;;19.90;55.40;;;;;;4921249;29;20122;-74
2022/05/02 13:05:46;;;;;;;16.65;14.52;;;19.70;55.20;;;;;;4937131;29;20473;-75
2022/05/02 13:08:19;;;;;;;16.90;14.73;;;19.50;55.10;;;;;;4921824;29;20028;-77
2022/05/02 13:10:50;;;;;;;15.90;14.25;;;19.30;55.10;;;;;;4925238;29;20105;-76
2022/05/02 13:13:17;;;;;;;17.30;13.68;;;19.10;55.10;;;;;;4920176;29;20035;-76
2022/05/02 13:15:47;;;;;;;14.48;12.95;;;19.00;55.30;;;;;;4923936;29;20040;-77
2022/05/02 13:18:18;;;;;;;16.05;13.90;;;18.80;55.10;;;;;;4925574;29;20040;-75
2022/05/02 13:21:00;;;;;;;17.00;13.95;;;18.80;55.30;;;;;;4926461;29;20035;-76
2022/05/02 13:23:42;;;;;;;18.13;14.32;;;18.70;55.20;;;;;;4929726;29;20032;-76
2022/05/02 13:26:27;;;;;;;14.30;12.70;;;18.70;55.40;;;;;;4924002;29;20027;-76
2022/05/02 13:29:02;;;;;;;13.70;12.25;;;18.70;55.40;;;;;;4944900;28;20020;-76
2022/05/02 13:31:44;;;;;;;12.68;11.48;;;18.80;55.50;;;;;;4945072;28;20090;-75
2022/05/02 13:34:34;;;;;;;14.10;12.38;;;18.90;55.40;;;;;;4946824;29;20129;-77
2022/05/02 13:37:07;;;;;;;13.60;10.95;;;19.00;55.20;;;;;;4946599;29;20113;-74
2022/05/02 13:39:54;;;;;;;12.93;11.63;;;19.10;55.10;;;;;;4944773;29;20036;-75